sensor_id;sensor_type;location;lat;lon;timestamp;temperature;humidity
34558;DHT22;24708;48.888;8.736;2023-03-16T06:31:39;3.60;99.90
34558;DHT22;24708;48.888;8.736;2023-03-16T06:34:07;3.50;99.90
34558;DHT22;24708;48.888;8.736;2023-03-16T06:36:34;4.40;99.90
34558;DHT22;24708;48.888;8.736;2023-03-16T06:39:05;4.50;99.90
34558;DHT22;24708;48.888;8.736;2023-03-16T06:41:32;4.80;99.90
34558;DHT22;24708;48.888;8.736;2023-03-16T06:44:01;4.30;99.90
34558;DHT22;24708;48.888;8.736;2023-03-16T06:46:29;4.50;99.90
34558;DHT22;24708;48.888;8.736;2023-03-16T06:49:03;4.60;99.90
34558;DHT22;24708;48.888;8.736;2023-03-16T06:51:31;5.00;99.90
34558;DHT22;24708;48.888;8.736;2023-03-16T06:54:04;5.50;99.90
34558;DHT22;24708;48.888;8.736;2023-03-16T06:56:32;5.90;99.90
34558;DHT22;24708;48.888;8.736;2023-03-16T07:01:28;5.60;99.90
34558;DHT22;24708;48.888;8.736;2023-03-16T07:13:52;4.60;99.90
34558;DHT22;24708;48.888;8.736;2023-03-16T07:16:24;4.60;99.90
34558;DHT22;24708;48.888;8.736;2023-03-16T07:18:57;4.70;99.90
34558;DHT22;24708;48.888;8.736;2023-03-16T07:21:30;4.70;99.90
34558;DHT22;24708;48.888;8.736;2023-03-16T07:24:14;5.10;99.90
34558;DHT22;24708;48.888;8.736;2023-03-16T07:26:49;5.50;99.90
34558;DHT22;24708;48.888;8.736;2023-03-16T07:29:21;5.70;99.90
34558;DHT22;24708;48.888;8.736;2023-03-16T07:31:54;5.80;99.90
34558;DHT22;24708;48.888;8.736;2023-03-16T07:34:26;6.10;99.90
34558;DHT22;24708;48.888;8.736;2023-03-16T07:36:58;6.50;99.90
34558;DHT22;24708;48.888;8.736;2023-03-16T07:39:31;7.60;99.90
34558;DHT22;24708;48.888;8.736;2023-03-16T07:42:09;9.00;99.90
34558;DHT22;24708;48.888;8.736;2023-03-16T07:44:42;9.50;99.90
34558;DHT22;24708;48.888;8.736;2023-03-16T07:47:20;9.10;99.90
34558;DHT22;24708;48.888;8.736;2023-03-16T07:49:54;9.30;99.90
34558;DHT22;24708;48.888;8.736;2023-03-16T07:52:26;9.20;99.90
34558;DHT22;24708;48.888;8.736;2023-03-16T07:54:55;9.30;99.90
34558;DHT22;24708;48.888;8.736;2023-03-16T07:57:26;9.40;99.90
34558;DHT22;24708;48.888;8.736;2023-03-16T07:59:54;10.20;99.90
34558;DHT22;24708;48.888;8.736;2023-03-16T08:02:22;9.40;99.90
34558;DHT22;24708;48.888;8.736;2023-03-16T08:04:50;8.90;99.90
34558;DHT22;24708;48.888;8.736;2023-03-16T08:07:18;9.50;99.90
34558;DHT22;24708;48.888;8.736;2023-03-16T08:14:44;10.30;99.90
34558;DHT22;24708;48.888;8.736;2023-03-16T08:17:14;10.00;99.90
34558;DHT22;24708;48.888;8.736;2023-03-16T08:19:43;10.30;99.90
34558;DHT22;24708;48.888;8.736;2023-03-16T08:22:10;10.90;99.90
34558;DHT22;24708;48.888;8.736;2023-03-16T08:24:38;10.50;99.90
34558;DHT22;24708;48.888;8.736;2023-03-16T08:27:07;12.40;99.90
34558;DHT22;24708;48.888;8.736;2023-03-16T08:29:37;12.60;99.90
34558;DHT22;24708;48.888;8.736;2023-03-16T08:32:06;11.80;99.90
34558;DHT22;24708;48.888;8.736;2023-03-16T08:34:34;11.70;99.90
34558;DHT22;24708;48.888;8.736;2023-03-16T08:37:05;12.00;99.90
34558;DHT22;24708;48.888;8.736;2023-03-16T08:39:35;11.80;99.90
34558;DHT22;24708;48.888;8.736;2023-03-16T08:42:03;11.50;99.90
34558;DHT22;24708;48.888;8.736;2023-03-16T08:44:33;10.30;99.90
34558;DHT22;24708;48.888;8.736;2023-03-16T08:47:03;10.30;99.90
34558;DHT22;24708;48.888;8.736;2023-03-16T08:49:32;11.80;99.90
34558;DHT22;24708;48.888;8.736;2023-03-16T08:52:01;12.10;99.90
34558;DHT22;24708;48.888;8.736;2023-03-16T08:54:29;12.10;99.90
34558;DHT22;24708;48.888;8.736;2023-03-16T08:56:58;11.20;99.90
34558;DHT22;24708;48.888;8.736;2023-03-16T08:59:27;10.80;99.90
34558;DHT22;24708;48.888;8.736;2023-03-16T09:01:57;11.50;99.90
34558;DHT22;24708;48.888;8.736;2023-03-16T09:04:27;11.80;99.90
34558;DHT22;24708;48.888;8.736;2023-03-16T09:06:57;11.60;99.90
34558;DHT22;24708;48.888;8.736;2023-03-16T09:09:36;11.60;99.90
34558;DHT22;24708;48.888;8.736;2023-03-16T09:12:06;10.90;99.90
34558;DHT22;24708;48.888;8.736;2023-03-16T09:14:33;11.10;99.90
34558;DHT22;24708;48.888;8.736;2023-03-16T09:17:06;11.20;99.90
34558;DHT22;24708;48.888;8.736;2023-03-16T09:19:39;11.10;99.90
34558;DHT22;24708;48.888;8.736;2023-03-16T09:22:19;12.20;99.90
34558;DHT22;24708;48.888;8.736;2023-03-16T09:24:47;11.30;99.90
34558;DHT22;24708;48.888;8.736;2023-03-16T09:27:16;10.20;99.90
34558;DHT22;24708;48.888;8.736;2023-03-16T09:29:44;10.30;99.90
34558;DHT22;24708;48.888;8.736;2023-03-16T09:32:12;11.00;99.90
34558;DHT22;24708;48.888;8.736;2023-03-16T09:34:40;9.20;99.90
34558;DHT22;24708;48.888;8.736;2023-03-16T09:37:08;9.60;99.90
34558;DHT22;24708;48.888;8.736;2023-03-16T09:39:35;10.90;99.90
34558;DHT22;24708;48.888;8.736;2023-03-16T09:47:45;10.10;99.90
34558;DHT22;24708;48.888;8.736;2023-03-16T09:50:28;10.60;99.90
34558;DHT22;24708;48.888;8.736;2023-03-16T09:55:54;12.30;99.90
34558;DHT22;24708;48.888;8.736;2023-03-16T09:58:25;12.60;99.90
34558;DHT22;24708;48.888;8.736;2023-03-16T10:04:17;11.30;99.90
34558;DHT22;24708;48.888;8.736;2023-03-16T10:07:04;12.00;99.90
34558;DHT22;24708;48.888;8.736;2023-03-16T10:12:33;12.40;99.90
34558;DHT22;24708;48.888;8.736;2023-03-16T10:15:14;12.80;99.90
34558;DHT22;24708;48.888;8.736;2023-03-16T10:20:45;12.50;99.30
34558;DHT22;24708;48.888;8.736;2023-03-16T10:23:20;12.40;97.70
34558;DHT22;24708;48.888;8.736;2023-03-16T10:25:53;12.20;98.10
34558;DHT22;24708;48.888;8.736;2023-03-16T10:28:26;11.90;99.40
34558;DHT22;24708;48.888;8.736;2023-03-16T10:30:56;12.40;98.50
34558;DHT22;24708;48.888;8.736;2023-03-16T10:33:31;12.50;97.80
34558;DHT22;24708;48.888;8.736;2023-03-16T10:36:13;12.70;97.50
34558;DHT22;24708;48.888;8.736;2023-03-16T10:38:45;12.60;97.20
34558;DHT22;24708;48.888;8.736;2023-03-16T10:43:58;11.40;98.60
34558;DHT22;24708;48.888;8.736;2023-03-16T10:46:46;11.70;97.90
34558;DHT22;24708;48.888;8.736;2023-03-16T10:49:43;12.00;95.70
34558;DHT22;24708;48.888;8.736;2023-03-16T10:57:24;12.00;96.50
34558;DHT22;24708;48.888;8.736;2023-03-16T10:59:54;12.90;99.90
34558;DHT22;24708;48.888;8.736;2023-03-16T11:02:30;12.80;96.60
34558;DHT22;24708;48.888;8.736;2023-03-16T11:08:12;13.70;94.30
34558;DHT22;24708;48.888;8.736;2023-03-16T11:10:44;13.30;94.70
34558;DHT22;24708;48.888;8.736;2023-03-16T11:13:29;13.10;94.80
34558;DHT22;24708;48.888;8.736;2023-03-16T11:18:51;13.40;92.40
34558;DHT22;24708;48.888;8.736;2023-03-16T11:21:39;13.30;92.60
34558;DHT22;24708;48.888;8.736;2023-03-16T11:24:19;13.30;92.30
34558;DHT22;24708;48.888;8.736;2023-03-16T11:26:55;14.10;92.20
34558;DHT22;24708;48.888;8.736;2023-03-16T11:32:26;12.90;90.50
34558;DHT22;24708;48.888;8.736;2023-03-16T11:48:50;12.90;86.50
34558;DHT22;24708;48.888;8.736;2023-03-16T11:51:52;12.60;89.20
34558;DHT22;24708;48.888;8.736;2023-03-16T11:54:34;12.20;90.50
34558;DHT22;24708;48.888;8.736;2023-03-16T12:02:37;12.40;87.10
34558;DHT22;24708;48.888;8.736;2023-03-16T12:08:20;12.30;93.30
34558;DHT22;24708;48.888;8.736;2023-03-16T12:10:56;12.10;87.70
34558;DHT22;24708;48.888;8.736;2023-03-16T12:16:18;12.60;90.30
34558;DHT22;24708;48.888;8.736;2023-03-16T12:18:53;13.00;95.90
34558;DHT22;24708;48.888;8.736;2023-03-16T12:21:38;12.50;93.10
34558;DHT22;24708;48.888;8.736;2023-03-16T12:24:16;12.90;93.40
34558;DHT22;24708;48.888;8.736;2023-03-16T12:26:45;13.00;94.20
34558;DHT22;24708;48.888;8.736;2023-03-16T12:31:54;12.70;90.40
34558;DHT22;24708;48.888;8.736;2023-03-16T12:34:47;12.60;90.00
34558;DHT22;24708;48.888;8.736;2023-03-16T12:43:17;13.20;90.00
34558;DHT22;24708;48.888;8.736;2023-03-16T12:46:08;13.40;90.00
34558;DHT22;24708;48.888;8.736;2023-03-16T12:48:51;13.00;89.00
34558;DHT22;24708;48.888;8.736;2023-03-16T12:51:20;12.50;90.20
34558;DHT22;24708;48.888;8.736;2023-03-16T12:53:58;12.40;90.40
34558;DHT22;24708;48.888;8.736;2023-03-16T12:56:33;12.20;90.60
34558;DHT22;24708;48.888;8.736;2023-03-16T12:59:05;12.20;90.60
34558;DHT22;24708;48.888;8.736;2023-03-16T13:01:41;11.50;90.50
34558;DHT22;24708;48.888;8.736;2023-03-16T13:04:21;12.00;91.10
34558;DHT22;24708;48.888;8.736;2023-03-16T13:06:59;12.10;89.00
34558;DHT22;24708;48.888;8.736;2023-03-16T13:09:28;12.10;90.20
34558;DHT22;24708;48.888;8.736;2023-03-16T13:12:01;12.20;87.20
34558;DHT22;24708;48.888;8.736;2023-03-16T13:20:04;12.60;88.30
34558;DHT22;24708;48.888;8.736;2023-03-16T13:25:42;12.30;86.00
34558;DHT22;24708;48.888;8.736;2023-03-16T13:28:13;12.40;88.10
34558;DHT22;24708;48.888;8.736;2023-03-16T13:30:45;12.50;87.70
34558;DHT22;24708;48.888;8.736;2023-03-16T13:33:24;12.40;87.50
34558;DHT22;24708;48.888;8.736;2023-03-16T13:35:55;12.50;87.20
34558;DHT22;24708;48.888;8.736;2023-03-16T13:38:25;12.00;92.90
34558;DHT22;24708;48.888;8.736;2023-03-16T13:41:02;12.00;85.50
34558;DHT22;24708;48.888;8.736;2023-03-16T13:43:31;12.20;86.60
34558;DHT22;24708;48.888;8.736;2023-03-16T13:46:16;12.50;86.50
34558;DHT22;24708;48.888;8.736;2023-03-16T13:48:46;12.30;86.20
34558;DHT22;24708;48.888;8.736;2023-03-16T13:51:16;12.20;87.70
34558;DHT22;24708;48.888;8.736;2023-03-16T13:53:45;12.40;88.20
34558;DHT22;24708;48.888;8.736;2023-03-16T13:56:19;12.50;93.20
34558;DHT22;24708;48.888;8.736;2023-03-16T13:58:50;12.40;86.70
34558;DHT22;24708;48.888;8.736;2023-03-16T14:01:25;12.30;87.50
34558;DHT22;24708;48.888;8.736;2023-03-16T14:04:01;12.00;94.10
34558;DHT22;24708;48.888;8.736;2023-03-16T14:06:35;12.30;89.00
34558;DHT22;24708;48.888;8.736;2023-03-16T14:09:23;12.40;90.10
34558;DHT22;24708;48.888;8.736;2023-03-16T14:11:54;12.20;89.00
34558;DHT22;24708;48.888;8.736;2023-03-16T14:14:35;12.20;88.70
34558;DHT22;24708;48.888;8.736;2023-03-16T14:17:17;12.00;90.00
34558;DHT22;24708;48.888;8.736;2023-03-16T14:19:50;12.60;95.30
34558;DHT22;24708;48.888;8.736;2023-03-16T14:22:24;12.40;94.70
34558;DHT22;24708;48.888;8.736;2023-03-16T14:24:57;12.40;89.10
34558;DHT22;24708;48.888;8.736;2023-03-16T14:32:57;12.40;94.00
34558;DHT22;24708;48.888;8.736;2023-03-16T14:35:28;12.50;87.90
34558;DHT22;24708;48.888;8.736;2023-03-16T14:37:56;12.60;88.60
34558;DHT22;24708;48.888;8.736;2023-03-16T14:40:30;12.60;94.90
34558;DHT22;24708;48.888;8.736;2023-03-16T14:43:03;12.40;90.00
34558;DHT22;24708;48.888;8.736;2023-03-16T14:45:36;12.30;89.80
34558;DHT22;24708;48.888;8.736;2023-03-16T14:48:11;12.40;95.60
34558;DHT22;24708;48.888;8.736;2023-03-16T14:50:43;12.40;89.80
34558;DHT22;24708;48.888;8.736;2023-03-16T14:53:11;12.60;89.70
34558;DHT22;24708;48.888;8.736;2023-03-16T14:55:38;12.90;90.20
34558;DHT22;24708;48.888;8.736;2023-03-16T14:58:05;12.60;89.80
34558;DHT22;24708;48.888;8.736;2023-03-16T15:00:33;12.60;90.40
34558;DHT22;24708;48.888;8.736;2023-03-16T15:03:16;12.60;89.90
34558;DHT22;24708;48.888;8.736;2023-03-16T15:05:48;12.50;89.90
34558;DHT22;24708;48.888;8.736;2023-03-16T15:08:28;13.00;94.50
34558;DHT22;24708;48.888;8.736;2023-03-16T15:11:03;12.90;89.40
34558;DHT22;24708;48.888;8.736;2023-03-16T15:13:32;12.80;89.90
34558;DHT22;24708;48.888;8.736;2023-03-16T15:16:08;12.80;88.50
34558;DHT22;24708;48.888;8.736;2023-03-16T15:18:39;12.70;88.80
34558;DHT22;24708;48.888;8.736;2023-03-16T15:21:14;12.50;94.20
34558;DHT22;24708;48.888;8.736;2023-03-16T15:23:43;12.40;88.20
34558;DHT22;24708;48.888;8.736;2023-03-16T15:26:12;12.50;88.10
34558;DHT22;24708;48.888;8.736;2023-03-16T15:28:40;12.40;88.90
34558;DHT22;24708;48.888;8.736;2023-03-16T15:31:13;12.50;89.20
34558;DHT22;24708;48.888;8.736;2023-03-16T15:33:42;12.50;88.90
34558;DHT22;24708;48.888;8.736;2023-03-16T15:36:17;12.70;89.20
34558;DHT22;24708;48.888;8.736;2023-03-16T15:38:47;12.60;94.70
34558;DHT22;24708;48.888;8.736;2023-03-16T15:41:15;12.60;90.00
34558;DHT22;24708;48.888;8.736;2023-03-16T15:43:43;12.60;88.00
34558;DHT22;24708;48.888;8.736;2023-03-16T15:46:12;12.50;87.90
34558;DHT22;24708;48.888;8.736;2023-03-16T15:48:39;12.50;87.80
34558;DHT22;24708;48.888;8.736;2023-03-16T15:51:10;12.40;87.90
34558;DHT22;24708;48.888;8.736;2023-03-16T15:53:44;12.70;88.20
34558;DHT22;24708;48.888;8.736;2023-03-16T15:56:15;12.30;88.50
34558;DHT22;24708;48.888;8.736;2023-03-16T15:58:44;12.30;88.50
34558;DHT22;24708;48.888;8.736;2023-03-16T16:01:40;12.50;88.60
34558;DHT22;24708;48.888;8.736;2023-03-16T16:04:16;12.40;94.10
34558;DHT22;24708;48.888;8.736;2023-03-16T16:06:46;12.40;88.40
34558;DHT22;24708;48.888;8.736;2023-03-16T16:09:14;12.40;89.00
34558;DHT22;24708;48.888;8.736;2023-03-16T16:11:43;12.40;89.00
34558;DHT22;24708;48.888;8.736;2023-03-16T16:14:20;12.00;94.10
34558;DHT22;24708;48.888;8.736;2023-03-16T16:16:48;12.30;88.80
34558;DHT22;24708;48.888;8.736;2023-03-16T16:19:16;12.40;89.50
34558;DHT22;24708;48.888;8.736;2023-03-16T16:21:44;11.90;94.10
34558;DHT22;24708;48.888;8.736;2023-03-16T16:24:13;12.10;88.70
34558;DHT22;24708;48.888;8.736;2023-03-16T16:26:43;11.90;95.60
34558;DHT22;24708;48.888;8.736;2023-03-16T16:29:22;12.10;90.00
34558;DHT22;24708;48.888;8.736;2023-03-16T16:31:50;11.80;95.30
34558;DHT22;24708;48.888;8.736;2023-03-16T16:34:20;11.30;94.90
34558;DHT22;24708;48.888;8.736;2023-03-16T16:36:53;12.70;95.50
34558;DHT22;24708;48.888;8.736;2023-03-16T16:39:21;11.80;90.30
34558;DHT22;24708;48.888;8.736;2023-03-16T16:41:50;11.80;90.50
34558;DHT22;24708;48.888;8.736;2023-03-16T16:44:23;12.50;91.00
34558;DHT22;24708;48.888;8.736;2023-03-16T16:46:54;11.70;90.60
34558;DHT22;24708;48.888;8.736;2023-03-16T16:49:24;11.60;90.40
34558;DHT22;24708;48.888;8.736;2023-03-16T16:51:53;11.60;90.70
34558;DHT22;24708;48.888;8.736;2023-03-16T16:54:23;11.60;90.90
34558;DHT22;24708;48.888;8.736;2023-03-16T16:56:53;11.50;91.20
34558;DHT22;24708;48.888;8.736;2023-03-16T16:59:35;11.40;96.90
